createdAt,value
2017-12-26T00:00:36.293Z,81.70
2017-12-26T00:03:05.858Z,66.62
2017-12-26T00:05:35.660Z,65.62
2017-12-26T00:08:05.479Z,61.20
2017-12-26T00:10:35.323Z,63.65
2017-12-26T00:13:05.178Z,54.38
2017-12-26T00:15:35.026Z,54.83
2017-12-26T00:18:04.870Z,41.42
2017-12-26T00:20:34.683Z,44.60
2017-12-26T00:23:04.507Z,39.03
2017-12-26T00:25:34.325Z,45.60
2017-12-26T00:28:04.131Z,31.75
2017-12-26T00:30:33.958Z,32.00
2017-12-26T00:33:03.770Z,29.87
2017-12-26T00:35:33.586Z,28.30
2017-12-26T00:38:03.418Z,29.60
2017-12-26T00:40:33.237Z,33.03
2017-12-26T00:43:03.097Z,28.30
2017-12-26T00:45:32.913Z,28.30
2017-12-26T00:48:02.711Z,25.60
2017-12-26T00:50:32.523Z,26.15
2017-12-26T00:53:02.336Z,25.70
2017-12-26T00:55:32.156Z,29.25
2017-12-26T00:58:01.973Z,26.67
2017-12-26T01:00:31.801Z,31.70
2017-12-26T01:03:01.673Z,23.67
2017-12-26T01:05:31.486Z,30.10
2017-12-26T01:08:01.292Z,28.33
2017-12-26T01:10:31.127Z,21.85
2017-12-26T01:13:01.048Z,22.62
2017-12-26T01:15:30.898Z,21.80
2017-12-26T01:18:00.717Z,18.73
2017-12-26T01:20:30.537Z,16.62
2017-12-26T01:23:00.333Z,20.48
2017-12-26T01:25:30.187Z,21.95
2017-12-26T01:28:00.011Z,15.93
2017-12-26T01:30:29.797Z,15.70
2017-12-26T01:32:59.588Z,14.65
2017-12-26T01:35:29.156Z,15.82
2017-12-26T01:37:58.962Z,14.68
2017-12-26T01:40:29.005Z,15.45
2017-12-26T01:42:58.713Z,15.63
2017-12-26T01:45:28.272Z,18.02
2017-12-26T01:47:58.083Z,16.92
2017-12-26T01:50:27.917Z,18.98
2017-12-26T01:52:57.724Z,15.30
2017-12-26T01:55:27.544Z,16.95
2017-12-26T01:57:57.357Z,14.77
2017-12-26T02:00:27.371Z,18.12
2017-12-26T02:02:58.376Z,13.75
2017-12-26T02:05:28.189Z,14.43
2017-12-26T02:07:58.006Z,14.87
2017-12-26T02:10:27.818Z,17.77
2017-12-26T02:12:57.636Z,15.13
2017-12-26T02:15:27.382Z,18.98
2017-12-26T02:17:57.199Z,18.75
2017-12-26T02:20:27.012Z,17.10
2017-12-26T02:22:57.014Z,16.80
2017-12-26T02:25:26.833Z,14.68
2017-12-26T02:27:56.644Z,20.73
2017-12-26T02:30:26.469Z,18.92
2017-12-26T02:32:56.304Z,17.83
2017-12-26T02:35:26.126Z,17.80
2017-12-26T02:37:55.613Z,23.70
2017-12-26T02:40:25.434Z,24.05
2017-12-26T02:42:55.233Z,23.33
2017-12-26T02:45:25.082Z,16.87
2017-12-26T02:47:55.057Z,16.98
2017-12-26T02:50:28.840Z,22.77
2017-12-26T02:52:58.662Z,26.77
2017-12-26T02:55:28.469Z,26.95
2017-12-26T02:57:58.305Z,27.08
2017-12-26T03:00:28.126Z,27.33
2017-12-26T03:02:57.928Z,24.00
2017-12-26T03:05:27.733Z,19.17
2017-12-26T03:07:57.569Z,23.33
2017-12-26T03:10:27.387Z,24.98
2017-12-26T03:12:57.194Z,22.35
2017-12-26T03:15:27.026Z,22.87
2017-12-26T03:17:56.812Z,26.05
2017-12-26T03:20:26.673Z,30.95
2017-12-26T03:22:56.474Z,30.00
2017-12-26T03:25:26.304Z,25.27
2017-12-26T03:27:56.126Z,21.52
2017-12-26T03:30:25.482Z,22.92
2017-12-26T03:32:55.605Z,21.10
2017-12-26T03:35:25.412Z,42.92
2017-12-26T03:37:55.500Z,19.92
2017-12-26T03:40:25.336Z,24.95
2017-12-26T03:42:55.167Z,24.90
2017-12-26T03:45:25.052Z,23.73
2017-12-26T03:47:54.861Z,30.83
2017-12-26T03:50:24.687Z,23.12
2017-12-26T03:52:54.493Z,29.85
2017-12-26T03:55:24.299Z,28.87
2017-12-26T03:57:54.124Z,33.65
2017-12-26T04:00:24.069Z,35.22
2017-12-26T04:02:53.619Z,34.25
2017-12-26T04:05:23.440Z,25.98
2017-12-26T04:07:53.251Z,33.40
2017-12-26T04:10:23.062Z,30.23
2017-12-26T04:12:52.861Z,31.12
2017-12-26T04:15:23.519Z,25.75
2017-12-26T04:17:53.319Z,33.13
2017-12-26T04:20:23.151Z,30.70
2017-12-26T04:22:56.903Z,33.00
2017-12-26T04:25:26.746Z,28.40
2017-12-26T04:27:56.556Z,26.65
2017-12-26T04:30:26.364Z,27.08
2017-12-26T04:32:56.194Z,22.95
2017-12-26T04:35:26.017Z,29.90
2017-12-26T04:37:55.842Z,22.37
2017-12-26T04:40:25.672Z,23.40
2017-12-26T04:42:55.482Z,28.17
2017-12-26T04:45:25.294Z,26.95
2017-12-26T04:47:55.460Z,22.77
2017-12-26T04:50:25.256Z,26.90
2017-12-26T04:52:55.071Z,21.87
2017-12-26T04:55:24.901Z,17.20
2017-12-26T04:57:54.708Z,17.83
2017-12-26T05:00:24.516Z,18.85
2017-12-26T05:02:54.088Z,17.25
2017-12-26T05:05:23.896Z,20.02
2017-12-26T05:07:53.715Z,19.50
2017-12-26T05:10:23.536Z,16.35
2017-12-26T05:12:53.352Z,23.77
2017-12-26T05:15:23.144Z,19.05
2017-12-26T05:17:52.971Z,20.62
2017-12-26T05:20:23.356Z,26.15
2017-12-26T05:22:53.198Z,20.77
2017-12-26T05:25:23.014Z,22.52
2017-12-26T05:27:52.894Z,25.75
2017-12-26T05:30:22.738Z,17.58
2017-12-26T05:32:52.540Z,19.05
2017-12-26T05:35:22.355Z,22.55
2017-12-26T05:37:52.166Z,15.73
2017-12-26T05:40:21.965Z,22.92
2017-12-26T05:42:51.796Z,21.50
2017-12-26T05:45:21.600Z,18.42
2017-12-26T05:47:51.410Z,18.95
2017-12-26T05:50:21.199Z,17.35
2017-12-26T05:52:51.006Z,18.27
2017-12-26T05:55:20.825Z,17.08
2017-12-26T05:57:50.653Z,15.30
2017-12-26T06:00:20.495Z,14.93
2017-12-26T06:02:50.292Z,14.95
2017-12-26T06:05:20.114Z,12.55
2017-12-26T06:07:49.931Z,14.70
2017-12-26T06:10:19.735Z,13.68
2017-12-26T06:12:49.550Z,13.93
2017-12-26T06:15:19.344Z,13.70
2017-12-26T06:17:49.170Z,15.18
2017-12-26T06:20:18.951Z,16.87
2017-12-26T06:22:48.742Z,18.67
2017-12-26T06:25:18.585Z,20.37
2017-12-26T06:27:48.538Z,19.75
2017-12-26T06:30:18.367Z,19.95
2017-12-26T06:32:48.187Z,23.40
2017-12-26T06:35:18.067Z,18.20
2017-12-26T06:37:47.972Z,17.52
2017-12-26T06:40:17.785Z,22.77
2017-12-26T06:42:47.341Z,25.73
2017-12-26T06:45:17.171Z,21.35
2017-12-26T06:47:47.013Z,17.50
2017-12-26T06:50:16.872Z,24.27
2017-12-26T06:52:46.681Z,21.80
2017-12-26T06:55:16.513Z,19.73
2017-12-26T06:57:46.383Z,20.73
2017-12-26T07:00:16.209Z,21.85
2017-12-26T07:02:46.042Z,31.45
2017-12-26T07:05:15.832Z,25.62
2017-12-26T07:07:45.641Z,19.70
2017-12-26T07:10:15.447Z,20.27
2017-12-26T07:12:45.264Z,22.37
2017-12-26T07:15:15.053Z,16.70
2017-12-26T07:17:44.900Z,24.40
2017-12-26T07:20:20.174Z,18.55
2017-12-26T07:22:50.398Z,16.73
2017-12-26T07:25:20.215Z,20.40
2017-12-26T07:27:49.933Z,19.08
2017-12-26T07:30:19.729Z,25.17
2017-12-26T07:32:49.305Z,16.23
2017-12-26T07:35:19.127Z,17.08
2017-12-26T07:37:49.026Z,17.23
2017-12-26T07:40:18.834Z,21.20
2017-12-26T07:42:48.667Z,16.90
2017-12-26T07:45:18.471Z,29.12
2017-12-26T07:47:48.322Z,25.77
2017-12-26T07:50:18.100Z,27.80
2017-12-26T07:52:47.906Z,31.10
2017-12-26T07:55:17.726Z,22.35
2017-12-26T07:57:47.542Z,32.58
2017-12-26T08:00:17.166Z,27.35
2017-12-26T08:02:47.003Z,29.60
2017-12-26T08:05:16.826Z,38.30
2017-12-26T08:07:46.634Z,41.67
2017-12-26T08:10:16.469Z,36.80
2017-12-26T08:12:46.298Z,32.60
2017-12-26T08:15:16.104Z,34.53
2017-12-26T08:17:45.927Z,32.10
2017-12-26T08:20:15.796Z,33.53
2017-12-26T08:22:45.599Z,35.67
2017-12-26T08:25:15.413Z,35.28
2017-12-26T08:27:45.212Z,30.60
2017-12-26T08:30:15.035Z,34.15
2017-12-26T08:32:44.807Z,31.08
2017-12-26T08:35:14.636Z,28.35
2017-12-26T08:37:44.435Z,37.80
2017-12-26T08:40:14.253Z,29.20
2017-12-26T08:42:44.066Z,32.60
2017-12-26T08:45:13.906Z,35.95
2017-12-26T08:47:44.679Z,41.90
2017-12-26T08:50:14.470Z,41.90
2017-12-26T08:52:44.598Z,48.60
2017-12-26T08:55:14.429Z,41.17
2017-12-26T08:57:44.271Z,45.08
2017-12-26T09:00:14.841Z,43.30
2017-12-26T09:02:44.418Z,45.70
2017-12-26T09:05:14.439Z,42.83
2017-12-26T09:07:44.308Z,52.80
2017-12-26T09:10:14.169Z,49.33
2017-12-26T09:12:44.056Z,41.88
2017-12-26T09:15:13.833Z,49.45
2017-12-26T09:17:43.644Z,46.80
2017-12-26T09:20:13.454Z,48.35
2017-12-26T09:22:43.275Z,49.83
2017-12-26T09:25:13.109Z,51.42
2017-12-26T09:27:42.943Z,53.28
2017-12-26T09:30:12.728Z,52.95
2017-12-26T09:32:42.585Z,60.42
2017-12-26T09:35:12.372Z,67.05
2017-12-26T09:37:42.024Z,64.32
2017-12-26T09:40:11.816Z,64.87
2017-12-26T09:42:41.627Z,71.37
2017-12-26T09:45:11.456Z,65.65
2017-12-26T09:47:41.257Z,68.10
2017-12-26T09:50:11.067Z,72.18
2017-12-26T09:52:40.897Z,81.63
2017-12-26T09:55:10.713Z,75.53
2017-12-26T09:57:40.539Z,78.75
2017-12-26T10:00:10.440Z,72.10
2017-12-26T10:02:40.236Z,64.25
2017-12-26T10:05:10.650Z,65.22
2017-12-26T10:07:40.490Z,64.30
2017-12-26T10:10:10.366Z,74.30
2017-12-26T10:12:40.162Z,68.97
2017-12-26T10:15:10.013Z,55.90
2017-12-26T10:17:39.837Z,63.22
2017-12-26T10:20:09.662Z,63.03
2017-12-26T10:22:39.528Z,64.25
2017-12-26T10:25:09.352Z,59.92
2017-12-26T10:27:39.306Z,59.65
2017-12-26T10:30:09.119Z,60.70
2017-12-26T10:32:38.972Z,76.32
2017-12-26T10:35:08.791Z,60.58
2017-12-26T10:37:38.618Z,71.12
2017-12-26T10:40:08.433Z,63.53
2017-12-26T10:42:38.245Z,65.68
2017-12-26T10:45:08.062Z,61.47
2017-12-26T10:47:38.294Z,54.22
2017-12-26T10:50:08.101Z,52.53
2017-12-26T10:52:37.962Z,62.10
2017-12-26T10:55:08.310Z,52.38
2017-12-26T10:57:38.163Z,50.05
2017-12-26T11:00:08.006Z,58.60
2017-12-26T11:02:37.561Z,55.67
2017-12-26T11:05:07.427Z,52.70
2017-12-26T11:07:38.304Z,46.80
2017-12-26T11:10:08.139Z,56.88
2017-12-26T11:12:38.003Z,53.25
2017-12-26T11:15:07.811Z,47.08
2017-12-26T11:17:37.606Z,53.92
2017-12-26T11:20:07.403Z,48.35
2017-12-26T11:22:37.212Z,49.42
2017-12-26T11:25:07.017Z,46.72
2017-12-26T11:27:40.986Z,42.42
2017-12-26T11:30:10.809Z,45.45
2017-12-26T11:32:40.640Z,52.35
2017-12-26T11:35:10.473Z,45.92
2017-12-26T11:37:40.315Z,42.40
2017-12-26T11:40:10.138Z,40.90
2017-12-26T11:42:40.358Z,57.08
2017-12-26T11:45:10.170Z,60.10
2017-12-26T11:47:40.009Z,45.22
2017-12-26T11:50:09.814Z,52.62
2017-12-26T11:52:39.642Z,56.90
2017-12-26T11:55:09.459Z,54.72
2017-12-26T11:57:39.701Z,46.97
2017-12-26T12:00:09.823Z,54.70
2017-12-26T12:02:39.648Z,50.55
2017-12-26T12:05:10.192Z,46.83
2017-12-26T12:07:40.010Z,43.30
2017-12-26T12:10:09.821Z,46.50
2017-12-26T12:12:39.659Z,45.88
2017-12-26T12:15:09.548Z,43.65
2017-12-26T12:17:39.389Z,49.88
2017-12-26T12:20:09.254Z,44.90
2017-12-26T12:22:39.066Z,38.83
2017-12-26T12:25:08.909Z,45.28
2017-12-26T12:27:38.989Z,48.83
2017-12-26T12:30:08.891Z,39.40
2017-12-26T12:32:38.716Z,56.15
2017-12-26T12:35:08.552Z,50.38
2017-12-26T12:37:38.464Z,40.30
2017-12-26T12:40:08.560Z,46.88
2017-12-26T12:42:38.391Z,39.90
2017-12-26T12:45:08.240Z,45.25
2017-12-26T12:47:38.074Z,42.75
2017-12-26T12:50:08.009Z,38.97
2017-12-26T12:52:37.839Z,46.97
2017-12-26T12:55:07.667Z,46.67
2017-12-26T12:57:37.490Z,61.00
2017-12-26T13:00:07.458Z,40.60
2017-12-26T13:02:37.320Z,48.17
2017-12-26T13:05:07.178Z,47.90
2017-12-26T13:07:37.019Z,42.20
2017-12-26T13:10:06.858Z,47.92
2017-12-26T13:12:36.711Z,53.70
2017-12-26T13:15:06.726Z,47.50
2017-12-26T13:17:36.564Z,50.80
2017-12-26T13:20:06.371Z,46.55
2017-12-26T13:22:36.215Z,48.33
2017-12-26T13:25:06.050Z,41.28
2017-12-26T13:27:35.860Z,65.53
2017-12-26T13:30:05.690Z,59.53
2017-12-26T13:32:35.516Z,51.97
2017-12-26T13:35:05.313Z,56.30
2017-12-26T13:37:35.172Z,59.70
2017-12-26T13:40:04.986Z,56.03
2017-12-26T13:42:34.563Z,64.53
2017-12-26T13:45:04.409Z,61.53
2017-12-26T13:47:34.257Z,56.08
2017-12-26T13:50:04.069Z,56.35
2017-12-26T13:52:33.879Z,57.05
2017-12-26T13:55:03.770Z,52.62
2017-12-26T13:57:33.648Z,57.28
2017-12-26T14:00:03.247Z,65.25
2017-12-26T14:02:33.084Z,64.87
2017-12-26T14:05:02.921Z,67.57
2017-12-26T14:07:32.785Z,88.28
2017-12-26T14:10:02.629Z,112.72
2017-12-26T14:12:32.475Z,109.07
2017-12-26T14:15:02.317Z,126.12
2017-12-26T14:17:32.191Z,120.18
2017-12-26T14:20:02.060Z,137.75
2017-12-26T14:22:31.900Z,125.72
2017-12-26T14:25:01.729Z,145.07
2017-12-26T14:27:31.379Z,157.80
2017-12-26T14:30:01.208Z,138.82
2017-12-26T14:32:31.255Z,145.48
2017-12-26T14:35:01.216Z,133.20
2017-12-26T14:37:31.038Z,138.70
2017-12-26T14:40:00.869Z,148.90
2017-12-26T14:42:30.691Z,152.55
2017-12-26T14:45:00.256Z,158.75
2017-12-26T14:47:30.106Z,151.68
2017-12-26T14:49:59.953Z,167.30
2017-12-26T14:52:29.848Z,184.10
2017-12-26T14:54:59.687Z,191.30
2017-12-26T14:57:29.502Z,197.18
2017-12-26T14:59:59.349Z,173.87
2017-12-26T15:02:29.173Z,196.85
2017-12-26T15:04:58.806Z,154.20
2017-12-26T15:07:28.605Z,209.35
2017-12-26T15:09:58.427Z,205.70
2017-12-26T15:12:28.243Z,201.15
2017-12-26T15:14:58.086Z,169.35
2017-12-26T15:17:27.721Z,196.05
2017-12-26T15:19:57.581Z,191.25
2017-12-26T15:22:27.244Z,139.85
2017-12-26T15:24:57.069Z,159.07
2017-12-26T15:27:26.706Z,146.07
2017-12-26T15:29:56.537Z,140.40
2017-12-26T15:32:26.386Z,123.55
2017-12-26T15:34:56.257Z,136.40
2017-12-26T15:37:26.085Z,93.62
2017-12-26T15:39:55.909Z,80.55
2017-12-26T15:42:25.734Z,80.80
2017-12-26T15:44:55.547Z,49.83
2017-12-26T15:47:25.164Z,49.35
2017-12-26T15:49:55.035Z,42.97
2017-12-26T15:52:25.451Z,39.03
2017-12-26T15:54:55.281Z,40.78
2017-12-26T15:57:25.116Z,52.42
2017-12-26T15:59:54.937Z,47.67
2017-12-26T16:02:24.795Z,45.72
2017-12-26T16:04:54.623Z,60.70
2017-12-26T16:07:24.272Z,52.97
2017-12-26T16:09:54.412Z,43.78
2017-12-26T16:12:24.236Z,50.03
2017-12-26T16:14:54.049Z,52.60
2017-12-26T16:17:23.875Z,38.47
2017-12-26T16:19:54.040Z,53.67
2017-12-26T16:22:24.063Z,60.05
2017-12-26T16:24:53.874Z,60.22
2017-12-26T16:27:23.693Z,47.40
2017-12-26T16:29:53.623Z,42.95
2017-12-26T16:32:23.501Z,41.08
2017-12-26T16:34:53.310Z,45.03
2017-12-26T16:37:23.160Z,40.90
2017-12-26T16:39:52.998Z,46.60
2017-12-26T16:42:23.209Z,47.30
2017-12-26T16:44:53.162Z,41.65
2017-12-26T16:47:23.122Z,47.75
2017-12-26T16:49:52.920Z,40.05
2017-12-26T16:52:22.816Z,48.47
2017-12-26T16:54:52.628Z,42.50
2017-12-26T16:57:23.086Z,42.62
2017-12-26T16:59:52.927Z,46.80
2017-12-26T17:02:22.777Z,33.33
2017-12-26T17:04:52.584Z,42.15
2017-12-26T17:07:22.393Z,38.78
2017-12-26T17:09:52.224Z,34.03
2017-12-26T17:12:23.079Z,35.95
2017-12-26T17:14:52.977Z,39.33
2017-12-26T17:17:22.986Z,35.90
2017-12-26T17:19:52.893Z,42.58
2017-12-26T17:22:22.818Z,39.92
2017-12-26T17:24:52.488Z,39.13
2017-12-26T17:27:22.319Z,29.25
2017-12-26T17:29:52.174Z,26.83
2017-12-26T17:32:21.986Z,35.80
2017-12-26T17:34:51.805Z,34.15
2017-12-26T17:37:21.593Z,31.48
2017-12-26T17:39:51.400Z,31.92
2017-12-26T17:42:21.239Z,29.55
2017-12-26T17:44:50.968Z,39.80
2017-12-26T17:47:21.185Z,41.22
2017-12-26T17:49:51.024Z,35.13
2017-12-26T17:52:20.853Z,38.47
2017-12-26T17:54:50.676Z,36.03
2017-12-26T17:57:20.549Z,36.40
2017-12-26T17:59:50.156Z,32.60
2017-12-26T18:02:19.966Z,41.17
2017-12-26T18:04:49.625Z,39.80
2017-12-26T18:07:19.869Z,39.22
2017-12-26T18:09:49.723Z,35.28
2017-12-26T18:12:19.573Z,40.85
2017-12-26T18:14:49.411Z,38.45
2017-12-26T18:17:19.248Z,40.63
2017-12-26T18:19:49.087Z,43.50
2017-12-26T18:22:18.928Z,39.38
2017-12-26T18:24:48.761Z,55.25
2017-12-26T18:27:18.581Z,50.58
2017-12-26T18:29:48.411Z,69.37
2017-12-26T18:32:18.225Z,76.50
2017-12-26T18:34:48.084Z,67.47
2017-12-26T18:37:18.256Z,79.10
2017-12-26T18:39:48.088Z,74.22
2017-12-26T18:42:17.935Z,80.50
2017-12-26T18:44:47.724Z,62.42
2017-12-26T18:47:17.722Z,63.05
2017-12-26T18:49:47.240Z,62.58
2017-12-26T18:52:17.051Z,53.05
2017-12-26T18:54:46.893Z,53.08
2017-12-26T18:57:16.607Z,58.87
2017-12-26T18:59:46.417Z,51.92
2017-12-26T19:02:16.348Z,49.40
2017-12-26T19:04:46.184Z,55.08
2017-12-26T19:07:16.049Z,57.40
2017-12-26T19:09:45.938Z,41.58
2017-12-26T19:12:15.752Z,55.42
2017-12-26T19:14:45.656Z,53.22
2017-12-26T19:17:15.570Z,51.22
2017-12-26T19:19:45.430Z,53.00
2017-12-26T19:22:15.280Z,54.90
2017-12-26T19:24:45.100Z,53.72
2017-12-26T19:27:14.934Z,48.72
2017-12-26T19:29:44.895Z,45.55
2017-12-26T19:32:14.747Z,49.00
2017-12-26T19:34:44.571Z,45.75
2017-12-26T19:37:14.445Z,52.20
2017-12-26T19:39:44.259Z,49.28
2017-12-26T19:42:14.078Z,59.25
2017-12-26T19:44:44.348Z,55.42
2017-12-26T19:47:14.160Z,57.78
2017-12-26T19:49:43.977Z,60.88
2017-12-26T19:52:13.789Z,64.62
2017-12-26T19:54:43.617Z,61.13
2017-12-26T19:57:13.507Z,56.83
2017-12-26T19:59:43.344Z,60.38
2017-12-26T20:02:13.195Z,69.40
2017-12-26T20:04:43.015Z,61.35
2017-12-26T20:07:12.851Z,55.10
2017-12-26T20:09:42.678Z,60.75
2017-12-26T20:12:12.493Z,66.82
2017-12-26T20:14:42.302Z,65.35
2017-12-26T20:17:11.952Z,64.87
2017-12-26T20:19:41.762Z,58.03
2017-12-26T20:22:11.594Z,60.45
2017-12-26T20:24:41.817Z,58.60
2017-12-26T20:27:11.436Z,59.03
2017-12-26T20:29:41.056Z,58.42
2017-12-26T20:32:10.928Z,59.22
2017-12-26T20:34:41.202Z,41.92
2017-12-26T20:37:11.052Z,50.45
2017-12-26T20:39:40.956Z,56.47
2017-12-26T20:42:10.803Z,62.33
2017-12-26T20:44:40.705Z,75.93
2017-12-26T20:47:10.552Z,82.72
2017-12-26T20:49:40.453Z,87.32
2017-12-26T20:52:10.315Z,72.70
2017-12-26T20:54:40.139Z,80.28
2017-12-26T20:57:09.981Z,84.50
2017-12-26T20:59:39.876Z,129.32
2017-12-26T21:02:09.751Z,141.00
2017-12-26T21:04:39.589Z,146.70
2017-12-26T21:07:09.462Z,128.87
2017-12-26T21:09:39.309Z,133.77
2017-12-26T21:12:09.130Z,162.70
2017-12-26T21:14:38.939Z,152.93
2017-12-26T21:17:08.777Z,123.62
2017-12-26T21:19:38.655Z,111.12
2017-12-26T21:22:08.991Z,74.53
2017-12-26T21:24:38.808Z,85.07
2017-12-26T21:27:08.634Z,89.93
2017-12-26T21:29:38.456Z,84.40
2017-12-26T21:32:08.281Z,77.95
2017-12-26T21:34:38.152Z,72.25
2017-12-26T21:37:07.996Z,67.85
2017-12-26T21:39:37.901Z,74.05
2017-12-26T21:42:07.711Z,66.75
2017-12-26T21:44:37.573Z,62.05
2017-12-26T21:47:07.421Z,51.30
2017-12-26T21:49:37.240Z,59.13
2017-12-26T21:52:07.050Z,63.90
2017-12-26T21:54:36.878Z,62.53
2017-12-26T21:57:06.700Z,52.85
2017-12-26T21:59:36.573Z,58.97
2017-12-26T22:02:06.390Z,58.40
2017-12-26T22:04:36.094Z,59.15
2017-12-26T22:07:05.913Z,54.83
2017-12-26T22:09:35.733Z,52.90
2017-12-26T22:12:05.240Z,55.30
2017-12-26T22:14:35.067Z,66.47
2017-12-26T22:17:04.888Z,48.20
2017-12-26T22:19:34.778Z,51.20
2017-12-26T22:22:04.598Z,54.50
2017-12-26T22:24:34.427Z,49.65
2017-12-26T22:27:04.251Z,49.80
2017-12-26T22:29:34.087Z,43.17
2017-12-26T22:32:03.917Z,47.58
2017-12-26T22:34:33.761Z,45.42
2017-12-26T22:37:03.349Z,44.60
2017-12-26T22:39:33.160Z,53.92
2017-12-26T22:42:03.001Z,44.55
2017-12-26T22:44:32.811Z,58.53
2017-12-26T22:47:02.625Z,54.90
2017-12-26T22:49:32.427Z,45.53
2017-12-26T22:52:02.228Z,51.55
2017-12-26T22:54:32.030Z,45.10
2017-12-26T22:57:01.850Z,56.58
2017-12-26T22:59:31.658Z,53.53
2017-12-26T23:02:01.480Z,57.42
2017-12-26T23:04:31.289Z,56.60
2017-12-26T23:07:00.935Z,43.90
2017-12-26T23:09:31.293Z,49.17
2017-12-26T23:12:01.144Z,45.35
2017-12-26T23:14:36.297Z,36.63
2017-12-26T23:17:11.516Z,47.25
2017-12-26T23:19:46.975Z,54.38
2017-12-26T23:22:17.119Z,51.92
2017-12-26T23:24:52.383Z,57.90
2017-12-26T23:27:27.598Z,65.62
2017-12-26T23:30:02.633Z,53.08
2017-12-26T23:32:37.790Z,116.47
2017-12-26T23:35:13.101Z,100.47
2017-12-26T23:40:53.060Z,108.43
2017-12-26T23:43:28.437Z,128.20
2017-12-26T23:46:03.685Z,105.10
2017-12-26T23:48:38.824Z,124.40
2017-12-26T23:51:14.113Z,134.30
2017-12-26T23:53:49.372Z,117.95
2017-12-26T23:56:24.852Z,110.97
2017-12-26T23:59:00.095Z,107.85
